Time,TemperatureF,DewpointF,PressureIn,WindDirection,WindDirectionDegrees,WindSpeedMPH,WindSpeedGustMPH,Humidity,HourlyPrecipIn,Conditions,Clouds,dailyrainin,SoftwareType,DateUTC
2013-01-24 00:10:00,27.5,20.0,30.15,SSW,208,0.0,-999.0,72,-99.99,,,0.00,weatherlink.com 1.10,2013-01-24 05:10:00,
2013-01-24 00:25:00,27.2,20.0,30.14,SSW,208,0.0,-999.0,73,-99.99,,,0.00,weatherlink.com 1.10,2013-01-24 05:25:00,
2013-01-24 00:40:00,27.0,19.0,30.12,SSW,209,0.0,-999.0,73,-99.99,,,0.00,weatherlink.com 1.10,2013-01-24 05:40:00,
2013-01-24 00:55:00,26.9,20.0,30.12,SSW,209,0.0,-999.0,74,-99.99,,,0.00,weatherlink.com 1.10,2013-01-24 05:55:00,
2013-01-24 01:11:00,26.9,20.0,30.12,SSW,209,0.0,-999.0,75,-99.99,,,0.00,weatherlink.com 1.10,2013-01-24 06:11:00,
2013-01-24 01:25:00,26.6,20.0,30.11,SSW,209,0.0,-999.0,75,-99.99,,,0.00,weatherlink.com 1.10,2013-01-24 06:25:00,
2013-01-24 01:40:00,26.4,20.0,30.11,SSW,209,0.0,-999.0,75,-99.99,,,0.00,weatherlink.com 1.10,2013-01-24 06:40:00,
2013-01-24 01:56:00,26.2,19.0,30.11,SSW,209,0.0,-999.0,74,-99.99,,,0.00,weatherlink.com 1.10,2013-01-24 06:56:00,
2013-01-24 02:11:00,26.1,19.0,30.11,SSW,209,0.0,-999.0,75,-99.99,,,0.00,weatherlink.com 1.10,2013-01-24 07:11:00,
2013-01-24 02:26:00,26.0,19.0,30.11,SSW,209,0.0,-999.0,74,-99.99,,,0.00,weatherlink.com 1.10,2013-01-24 07:26:00,
2013-01-24 02:41:00,25.9,19.0,30.10,SSW,209,0.0,-999.0,74,-99.99,,,0.00,weatherlink.com 1.10,2013-01-24 07:41:00,
2013-01-24 02:56:00,25.7,18.0,30.09,SSW,209,0.0,-999.0,74,-99.99,,,0.00,weatherlink.com 1.10,2013-01-24 07:56:00,
2013-01-24 03:11:00,25.6,19.0,30.09,SSW,209,0.0,-999.0,75,-99.99,,,0.00,weatherlink.com 1.10,2013-01-24 08:11:00,
2013-01-24 03:26:00,25.5,19.0,30.09,SSW,209,0.0,-999.0,75,-99.99,,,0.00,weatherlink.com 1.10,2013-01-24 08:26:00,
2013-01-24 03:41:00,25.4,19.0,30.10,SSW,209,0.0,-999.0,76,-99.99,,,0.00,weatherlink.com 1.10,2013-01-24 08:41:00,
2013-01-24 03:56:00,25.4,19.0,30.09,SSW,209,1.0,-999.0,77,-99.99,,,0.00,weatherlink.com 1.10,2013-01-24 08:56:00,
2013-01-24 04:12:00,25.4,19.0,30.09,SSW,207,0.0,-999.0,78,-99.99,,,0.00,weatherlink.com 1.10,2013-01-24 09:12:00,
2013-01-24 04:27:00,25.4,19.0,30.09,SW,219,0.0,-999.0,78,-99.99,,,0.00,weatherlink.com 1.10,2013-01-24 09:27:00,
2013-01-24 04:42:00,25.3,19.0,30.09,WSW,247,0.0,-999.0,78,-99.99,,,0.00,weatherlink.com 1.10,2013-01-24 09:42:00,
2013-01-24 04:57:00,25.2,19.0,30.09,South,182,0.0,-999.0,78,-99.99,,,0.00,weatherlink.com 1.10,2013-01-24 09:57:00,
2013-01-24 05:12:00,25.8,20.0,30.11,NW,309,0.0,-999.0,79,-99.99,,,0.00,weatherlink.com 1.10,2013-01-24 10:12:00,
2013-01-24 05:27:00,26.6,21.0,30.11,SW,236,1.0,-999.0,79,-99.99,,,0.00,weatherlink.com 1.10,2013-01-24 10:27:00,
2013-01-24 05:42:00,28.1,22.0,30.11,South,180,1.0,-999.0,79,-99.99,,,0.00,weatherlink.com 1.10,2013-01-24 10:42:00,
2013-01-24 05:57:00,29.9,24.0,30.12,SW,227,0.0,-999.0,77,-99.99,,,0.00,weatherlink.com 1.10,2013-01-24 10:57:00,
2013-01-24 06:12:00,31.9,25.0,30.13,SSW,199,0.0,-999.0,74,-99.99,,,0.00,weatherlink.com 1.10,2013-01-24 11:12:00,
2013-01-24 06:27:00,33.4,24.0,30.14,SW,227,0.0,-999.0,69,-99.99,,,0.00,weatherlink.com 1.10,2013-01-24 11:27:00,
2013-01-24 06:43:00,33.6,24.0,30.14,NW,315,1.0,-999.0,68,-99.99,,,0.00,weatherlink.com 1.10,2013-01-24 11:43:00,
2013-01-24 06:57:00,33.4,24.0,30.15,WSW,257,1.0,-999.0,68,-99.99,,,0.00,weatherlink.com 1.10,2013-01-24 11:57:00,
2013-01-24 07:13:00,35.2,22.0,30.16,NW,309,12.0,-999.0,60,-99.99,,,0.00,weatherlink.com 1.10,2013-01-24 12:13:00,
2013-01-24 07:28:00,39.2,21.0,30.18,NNW,340,5.0,-999.0,48,-99.99,,,0.00,weatherlink.com 1.10,2013-01-24 12:28:00,
2013-01-24 07:43:00,39.9,19.0,30.18,NNW,334,5.0,-999.0,43,-99.99,,,0.00,weatherlink.com 1.10,2013-01-24 12:43:00,
2013-01-24 07:58:00,39.6,18.0,30.20,NNW,334,0.0,-999.0,42,-99.99,,,0.00,weatherlink.com 1.10,2013-01-24 12:58:00,
2013-01-24 08:13:00,38.9,18.0,30.21,North,351,0.0,-999.0,43,-99.99,,,0.00,weatherlink.com 1.10,2013-01-24 13:13:00,
2013-01-24 08:28:00,37.8,16.0,30.21,North,360,0.0,-999.0,42,-99.99,,,0.00,weatherlink.com 1.10,2013-01-24 13:28:00,
2013-01-24 08:44:00,37.9,10.0,30.22,WNW,303,3.0,-999.0,32,-99.99,,,0.00,weatherlink.com 1.10,2013-01-24 13:44:00,
2013-01-24 08:59:00,38.9,10.0,30.24,NNW,330,5.0,-999.0,31,-99.99,,,0.00,weatherlink.com 1.10,2013-01-24 13:59:00,
2013-01-24 09:13:00,39.5,10.0,30.25,NNW,335,1.0,-999.0,29,-99.99,,,0.00,weatherlink.com 1.10,2013-01-24 14:13:00,
2013-01-24 09:29:00,39.7,10.0,30.26,WNW,284,2.0,-999.0,29,-99.99,,,0.00,weatherlink.com 1.10,2013-01-24 14:29:00,
2013-01-24 09:44:00,40.0,10.0,30.28,NE,38,5.0,-999.0,29,-99.99,,,0.00,weatherlink.com 1.10,2013-01-24 14:44:00,
2013-01-24 09:59:00,40.4,8.0,30.29,North,10,2.0,-999.0,26,-99.99,,,0.00,weatherlink.com 1.10,2013-01-24 14:59:00,
2013-01-24 10:14:00,40.3,15.0,30.31,NE,52,5.0,-999.0,35,-99.99,,,0.00,weatherlink.com 1.10,2013-01-24 15:14:00,
2013-01-24 10:29:00,39.4,13.0,30.32,ENE,74,5.0,-999.0,34,-99.99,,,0.00,weatherlink.com 1.10,2013-01-24 15:29:00,
2013-01-24 10:44:00,39.4,13.0,30.33,NE,45,9.0,-999.0,34,-99.99,,,0.00,weatherlink.com 1.10,2013-01-24 15:44:00,
2013-01-24 10:59:00,39.6,12.0,30.34,NE,44,5.0,-999.0,32,-99.99,,,0.00,weatherlink.com 1.10,2013-01-24 15:59:00,
2013-01-24 11:14:00,39.6,11.0,30.35,NE,50,4.0,-999.0,31,-99.99,,,0.00,weatherlink.com 1.10,2013-01-24 16:14:00,
2013-01-24 11:29:00,39.5,11.0,30.36,ENE,58,11.0,-999.0,31,-99.99,,,0.00,weatherlink.com 1.10,2013-01-24 16:29:00,
2013-01-24 11:45:00,39.6,10.0,30.37,NE,34,8.0,-999.0,30,-99.99,,,0.00,weatherlink.com 1.10,2013-01-24 16:45:00,
2013-01-24 12:00:00,38.4,11.0,30.38,NNE,22,8.0,-999.0,32,-99.99,,,0.00,weatherlink.com 1.10,2013-01-24 17:00:00,
2013-01-24 12:15:00,38.6,10.0,30.39,NE,51,8.0,-999.0,30,-99.99,,,0.00,weatherlink.com 1.10,2013-01-24 17:15:00,
2013-01-24 12:30:00,39.0,6.0,30.38,North,360,7.0,-999.0,25,-99.99,,,0.00,weatherlink.com 1.10,2013-01-24 17:30:00,
2013-01-24 12:45:00,38.4,4.0,30.39,NE,50,11.0,-999.0,24,-99.99,,,0.00,weatherlink.com 1.10,2013-01-24 17:45:00,
2013-01-24 13:00:00,39.0,3.0,30.39,NE,53,4.0,-999.0,22,-99.99,,,0.00,weatherlink.com 1.10,2013-01-24 18:00:00,
2013-01-24 13:15:00,39.1,2.0,30.39,NNW,346,2.0,-999.0,21,-99.99,,,0.00,weatherlink.com 1.10,2013-01-24 18:15:00,
2013-01-24 13:30:00,39.1,0.0,30.40,NNW,348,6.0,-999.0,19,-99.99,,,0.00,weatherlink.com 1.10,2013-01-24 18:30:00,
2013-01-24 13:46:00,39.6,0.0,30.40,NE,47,4.0,-999.0,19,-99.99,,,0.00,weatherlink.com 1.10,2013-01-24 18:46:00,
2013-01-24 14:01:00,38.6,-1.0,30.40,NE,46,4.0,-999.0,19,-99.99,,,0.00,weatherlink.com 1.10,2013-01-24 19:01:00,
2013-01-24 14:15:00,38.2,1.0,30.41,NE,53,4.0,-999.0,21,-99.99,,,0.00,weatherlink.com 1.10,2013-01-24 19:15:00,
2013-01-24 14:31:00,38.4,1.0,30.41,North,355,5.0,-999.0,21,-99.99,,,0.00,weatherlink.com 1.10,2013-01-24 19:31:00,
2013-01-24 14:46:00,38.3,2.0,30.42,NNE,17,2.0,-999.0,22,-99.99,,,0.00,weatherlink.com 1.10,2013-01-24 19:46:00,
2013-01-24 15:01:00,38.2,1.0,30.43,NE,55,5.0,-999.0,21,-99.99,,,0.00,weatherlink.com 1.10,2013-01-24 20:01:00,
2013-01-24 15:19:00,37.3,-1.0,30.45,ENE,76,1.0,-999.0,20,-99.99,,,0.00,weatherlink.com 1.10,2013-01-24 20:19:00,
2013-01-24 15:31:00,36.7,0.0,30.45,NNE,20,6.0,-999.0,21,-99.99,,,0.00,weatherlink.com 1.10,2013-01-24 20:31:00,
2013-01-24 15:46:00,36.6,1.0,30.45,NW,323,2.0,-999.0,22,-99.99,,,0.00,weatherlink.com 1.10,2013-01-24 20:46:00,
2013-01-24 16:01:00,36.3,1.0,30.46,North,359,2.0,-999.0,22,-99.99,,,0.00,weatherlink.com 1.10,2013-01-24 21:01:00,
2013-01-24 16:16:00,35.9,-2.0,30.47,ENE,65,2.0,-999.0,20,-99.99,,,0.00,weatherlink.com 1.10,2013-01-24 21:16:00,
2013-01-24 16:31:00,35.2,1.0,30.48,East,80,5.0,-999.0,23,-99.99,,,0.00,weatherlink.com 1.10,2013-01-24 21:31:00,
2013-01-24 16:46:00,34.6,0.0,30.48,NE,40,2.0,-999.0,23,-99.99,,,0.00,weatherlink.com 1.10,2013-01-24 21:46:00,
2013-01-24 17:02:00,33.9,1.0,30.49,ENE,74,8.0,-999.0,25,-99.99,,,0.00,weatherlink.com 1.10,2013-01-24 22:02:00,
2013-01-24 17:19:00,33.4,2.0,30.50,ENE,68,8.0,-999.0,26,-99.99,,,0.00,weatherlink.com 1.10,2013-01-24 22:19:00,
2013-01-24 17:32:00,32.4,-1.0,30.50,NE,53,8.0,-999.0,24,-99.99,,,0.00,weatherlink.com 1.10,2013-01-24 22:32:00,
2013-01-24 17:47:00,31.6,-1.0,30.51,ENE,60,4.0,-999.0,25,-99.99,,,0.00,weatherlink.com 1.10,2013-01-24 22:47:00,
2013-01-24 18:02:00,30.8,1.0,30.52,East,88,7.0,-999.0,28,-99.99,,,0.00,weatherlink.com 1.10,2013-01-24 23:02:00,
2013-01-24 18:17:00,29.9,-1.0,30.52,ENE,58,5.0,-999.0,27,-99.99,,,0.00,weatherlink.com 1.10,2013-01-24 23:17:00,
2013-01-24 18:32:00,29.3,0.0,30.53,East,86,4.0,-999.0,28,-99.99,,,0.00,weatherlink.com 1.10,2013-01-24 23:32:00,
2013-01-24 18:47:00,28.9,-1.0,30.54,NE,38,6.0,-999.0,28,-99.99,,,0.00,weatherlink.com 1.10,2013-01-24 23:47:00,
2013-01-24 19:02:00,28.5,0.0,30.55,NNE,32,5.0,-999.0,29,-99.99,,,0.00,weatherlink.com 1.10,2013-01-25 00:02:00,
2013-01-24 19:18:00,28.1,1.0,30.56,ENE,78,6.0,-999.0,31,-99.99,,,0.00,weatherlink.com 1.10,2013-01-25 00:18:00,
2013-01-24 19:32:00,27.8,0.0,30.56,East,98,5.0,-999.0,30,-99.99,,,0.00,weatherlink.com 1.10,2013-01-25 00:32:00,
2013-01-24 19:47:00,27.5,1.0,30.55,NE,51,4.0,-999.0,32,-99.99,,,0.00,weatherlink.com 1.10,2013-01-25 00:47:00,
2013-01-24 20:03:00,27.2,2.0,30.56,NE,47,7.0,-999.0,33,-99.99,,,0.00,weatherlink.com 1.10,2013-01-25 01:03:00,
2013-01-24 20:18:00,27.0,0.0,30.57,ESE,103,2.0,-999.0,31,-99.99,,,0.00,weatherlink.com 1.10,2013-01-25 01:18:00,
2013-01-24 20:33:00,26.8,1.0,30.56,East,93,0.0,-999.0,32,-99.99,,,0.00,weatherlink.com 1.10,2013-01-25 01:33:00,
2013-01-24 20:48:00,26.5,2.0,30.57,NE,52,7.0,-999.0,35,-99.99,,,0.00,weatherlink.com 1.10,2013-01-25 01:48:00,
2013-01-24 21:03:00,26.3,1.0,30.58,East,86,0.0,-999.0,34,-99.99,,,0.00,weatherlink.com 1.10,2013-01-25 02:03:00,
2013-01-24 21:18:00,26.0,2.0,30.57,ESE,107,0.0,-999.0,35,-99.99,,,0.00,weatherlink.com 1.10,2013-01-25 02:18:00,
2013-01-24 21:33:00,25.7,1.0,30.57,NE,48,2.0,-999.0,35,-99.99,,,0.00,weatherlink.com 1.10,2013-01-25 02:33:00,
2013-01-24 21:48:00,25.5,1.0,30.57,NNE,19,1.0,-999.0,35,-99.99,,,0.00,weatherlink.com 1.10,2013-01-25 02:48:00,
2013-01-24 22:03:00,25.4,1.0,30.58,SE,136,0.0,-999.0,35,-99.99,,,0.00,weatherlink.com 1.10,2013-01-25 03:03:00,
2013-01-24 22:18:00,25.2,2.0,30.59,ESE,111,0.0,-999.0,36,-99.99,,,0.00,weatherlink.com 1.10,2013-01-25 03:18:00,
2013-01-24 22:34:00,25.0,1.0,30.59,North,355,1.0,-999.0,36,-99.99,,,0.00,weatherlink.com 1.10,2013-01-25 03:34:00,
2013-01-24 22:49:00,24.7,1.0,30.59,ENE,77,0.0,-999.0,36,-99.99,,,0.00,weatherlink.com 1.10,2013-01-25 03:49:00,
2013-01-24 23:04:00,24.4,1.0,30.60,ESE,117,1.0,-999.0,37,-99.99,,,0.00,weatherlink.com 1.10,2013-01-25 04:04:00,
2013-01-24 23:19:00,24.2,2.0,30.60,SE,126,0.0,-999.0,38,-99.99,,,0.00,weatherlink.com 1.10,2013-01-25 04:19:00,
2013-01-24 23:34:00,23.9,2.0,30.60,ESE,103,0.0,-999.0,39,-99.99,,,0.00,weatherlink.com 1.10,2013-01-25 04:34:00,
2013-01-24 23:49:00,23.7,3.0,30.62,ESE,103,0.0,-999.0,40,-99.99,,,0.00,weatherlink.com 1.10,2013-01-25 04:49:00,